Time;durP1;ratioP1;P1;durP2;ratioP2;P2;SDS_P1;SDS_P2;PMS_P1;PMS_P2;Temp;Humidity;BMP_temperature;BMP_pressure;BME280_temperature;BME280_humidity;BME280_pressure;Samples;Min_cycle;Max_cycle;Signal;HPM_P1;HPM_P2
2023/05/09 00:02:23;;;;;;;108.00;37.97;;;;;;;14.08;100.00;101746.78;5061776;28;20159;-46
2023/05/09 00:04:48;;;;;;;104.65;39.13;;;;;;;14.09;100.00;101740.38;5050410;28;20052;-48
2023/05/09 00:07:14;;;;;;;119.55;39.38;;;;;;;14.08;100.00;101734.09;5050291;28;20057;-44
2023/05/09 00:09:39;;;;;;;109.40;38.92;;;;;;;14.10;100.00;101742.03;5049180;28;20048;-46
2023/05/09 00:12:05;;;;;;;94.35;37.30;;;;;;;14.10;100.00;101737.47;5050953;28;20052;-44
2023/05/09 00:14:32;;;;;;;90.65;37.30;;;;;;;14.13;100.00;101736.25;5064715;28;20073;-46
2023/05/09 00:16:58;;;;;;;97.85;38.88;;;;;;;14.20;100.00;101727.22;5077365;28;20531;-44
2023/05/09 00:19:23;;;;;;;98.00;38.35;;;;;;;14.23;100.00;101716.00;5077216;28;20170;-44
2023/05/09 00:21:49;;;;;;;90.38;36.65;;;;;;;14.26;100.00;101721.06;5077991;28;20021;-46
2023/05/09 00:24:14;;;;;;;92.43;36.50;;;;;;;14.26;100.00;101714.81;5077603;28;20402;-44
2023/05/09 00:26:39;;;;;;;88.82;36.00;;;;;;;14.28;100.00;101713.59;5077326;28;20405;-46
2023/05/09 00:29:05;;;;;;;100.95;37.08;;;;;;;14.20;100.00;101710.13;5070551;28;20099;-45
2023/05/09 00:31:30;;;;;;;86.93;34.97;;;;;;;14.18;100.00;101713.03;5055666;28;20039;-44
2023/05/09 00:33:56;;;;;;;92.78;36.03;;;;;;;14.20;100.00;101710.13;5060213;28;20016;-43
2023/05/09 00:36:22;;;;;;;84.22;33.85;;;;;;;14.20;100.00;101708.28;5075172;28;20382;-46
2023/05/09 00:38:47;;;;;;;84.25;34.58;;;;;;;14.22;100.00;101695.41;5075925;28;20474;-46
2023/05/09 00:41:13;;;;;;;87.22;34.70;;;;;;;14.26;100.00;101693.97;5056931;28;20036;-45
2023/05/09 00:43:38;;;;;;;86.20;34.80;;;;;;;14.30;100.00;101690.91;5060245;28;20025;-48
2023/05/09 00:46:04;;;;;;;79.97;33.22;;;;;;;14.32;100.00;101683.44;5062470;28;20028;-43
2023/05/09 00:48:29;;;;;;;81.85;33.40;;;;;;;14.32;100.00;101675.31;5075297;28;20020;-45
2023/05/09 00:50:55;;;;;;;78.00;31.90;;;;;;;14.30;100.00;101682.78;5068726;28;20073;-47
2023/05/09 00:53:20;;;;;;;86.43;32.63;;;;;;;14.34;100.00;101674.09;5074953;28;20031;-46
2023/05/09 00:55:46;;;;;;;72.47;32.50;;;;;;;14.38;100.00;101678.13;5042352;28;20137;-49
2023/05/09 00:58:12;;;;;;;77.90;34.42;;;;;;;14.34;100.00;101679.50;5074517;28;20090;-45
2023/05/09 01:00:37;;;;;;;86.05;34.03;;;;;;;14.28;100.00;101675.69;5075064;28;20028;-48
2023/05/09 01:03:04;;;;;;;77.93;32.97;;;;;;;14.25;100.00;101675.22;5056757;28;20045;-43
2023/05/09 01:05:37;;;;;;;81.68;32.63;;;;;;;14.19;100.00;101671.41;5057050;28;20449;-46
2023/05/09 01:08:30;;;;;;;82.28;33.17;;;;;;;14.13;100.00;101672.13;5057055;28;20574;-45
2023/05/09 01:11:09;;;;;;;82.00;33.20;;;;;;;14.11;100.00;101663.34;5057098;28;20055;-45
2023/05/09 01:13:45;;;;;;;78.38;31.77;;;;;;;14.08;100.00;101662.88;5058032;28;20052;-46
2023/05/09 01:16:38;;;;;;;80.85;32.17;;;;;;;14.08;100.00;101658.31;5055760;28;20095;-45
2023/05/09 01:19:25;;;;;;;77.47;30.98;;;;;;;14.05;100.00;101664.09;5064399;28;20478;-47
2023/05/09 01:21:51;;;;;;;80.63;31.85;;;;;;;14.00;100.00;101661.09;5054313;28;20044;-43
2023/05/09 01:24:47;;;;;;;78.25;33.20;;;;;;;13.97;100.00;101656.88;5053502;28;20036;-47
2023/05/09 01:27:43;;;;;;;83.85;31.80;;;;;;;13.97;100.00;101650.66;5062932;28;20089;-47
2023/05/09 01:30:11;;;;;;;74.53;31.65;;;;;;;14.02;100.00;101651.75;5072672;28;20123;-46
2023/05/09 01:32:37;;;;;;;82.40;32.83;;;;;;;14.02;100.00;101634.69;5073232;28;20477;-47
2023/05/09 01:35:04;;;;;;;80.22;31.15;;;;;;;14.00;100.00;101629.44;5060144;28;20039;-48
2023/05/09 01:37:34;;;;;;;76.80;30.67;;;;;;;13.97;100.00;101634.41;5055583;28;20398;-47
2023/05/09 01:40:05;;;;;;;86.40;31.02;;;;;;;13.97;100.00;101637.13;5055914;28;20091;-46
2023/05/09 01:42:41;;;;;;;73.78;28.95;;;;;;;14.02;100.00;101637.41;5053004;28;20048;-49
2023/05/09 01:45:09;;;;;;;76.07;30.20;;;;;;;14.03;100.00;101626.41;5064985;28;20035;-48
2023/05/09 01:47:34;;;;;;;67.10;26.52;;;;;;;14.05;100.00;101615.38;5055215;28;20112;-45
2023/05/09 01:50:00;;;;;;;61.35;25.25;;;;;;;14.00;100.00;101602.38;5056575;28;20109;-44
2023/05/09 01:52:26;;;;;;;62.03;25.65;;;;;;;14.00;100.00;101598.84;5039475;28;20071;-45
2023/05/09 01:54:53;;;;;;;63.28;25.70;;;;;;;14.03;100.00;101602.03;5058743;28;20120;-46
2023/05/09 01:57:19;;;;;;;55.05;24.10;;;;;;;13.94;100.00;101603.13;5052819;28;20029;-46
2023/05/09 01:59:45;;;;;;;65.40;23.75;;;;;;;13.94;100.00;101602.31;5052828;28;20056;-46
2023/05/09 02:02:11;;;;;;;61.45;24.63;;;;;;;13.91;100.00;101597.28;5034803;28;20055;-44
2023/05/09 02:04:36;;;;;;;60.72;23.30;;;;;;;13.90;100.00;101601.84;5038706;28;20017;-46
2023/05/09 02:07:04;;;;;;;60.90;21.52;;;;;;;13.90;100.00;101599.13;5065119;28;20399;-46
2023/05/09 02:09:29;;;;;;;56.55;22.35;;;;;;;13.91;100.00;101586.44;5071507;28;20032;-45
2023/05/09 02:11:55;;;;;;;60.95;22.77;;;;;;;13.92;100.00;101580.81;5051346;28;20021;-46
2023/05/09 02:14:20;;;;;;;57.03;22.20;;;;;;;13.87;100.00;101579.72;5051110;28;20394;-45
2023/05/09 02:16:46;;;;;;;53.58;22.05;;;;;;;13.91;100.00;101570.22;5057346;28;20044;-47
2023/05/09 02:19:11;;;;;;;59.17;23.15;;;;;;;13.89;100.00;101574.97;5070832;28;20025;-46
2023/05/09 02:21:37;;;;;;;56.45;23.92;;;;;;;14.00;100.00;101574.50;5071433;28;20398;-44
2023/05/09 02:24:03;;;;;;;62.33;24.20;;;;;;;13.97;100.00;101569.44;5072115;28;20032;-44
2023/05/09 02:26:28;;;;;;;59.05;23.90;;;;;;;13.96;100.00;101570.50;5053420;28;20034;-45
2023/05/09 02:28:54;;;;;;;64.03;24.83;;;;;;;13.94;100.00;101569.84;5071998;28;20032;-46
2023/05/09 02:31:22;;;;;;;58.17;23.13;;;;;;;13.93;100.00;101579.81;5071614;28;20029;-45
2023/05/09 02:33:48;;;;;;;75.90;24.13;;;;;;;13.95;100.00;101577.75;5069502;28;20031;-47
2023/05/09 02:36:14;;;;;;;54.08;24.00;;;;;;;13.93;100.00;101573.53;5066349;28;20156;-47
2023/05/09 02:38:40;;;;;;;56.85;23.67;;;;;;;13.92;100.00;101574.59;5063750;28;20153;-44
2023/05/09 02:41:05;;;;;;;60.63;23.15;;;;;;;13.87;100.00;101579.72;5071002;28;20028;-46
2023/05/09 02:43:31;;;;;;;64.15;25.00;;;;;;;13.89;100.00;101574.97;5071471;28;20426;-47
2023/05/09 02:45:56;;;;;;;61.83;23.58;;;;;;;13.89;100.00;101572.25;5054522;28;20063;-47
2023/05/09 02:48:22;;;;;;;52.63;23.27;;;;;;;13.90;100.00;101566.66;5070324;28;20025;-43
2023/05/09 02:50:47;;;;;;;58.10;23.50;;;;;;;13.96;100.00;101563.22;5070706;28;20020;-47
2023/05/09 02:53:12;;;;;;;53.72;23.13;;;;;;;13.95;100.00;101556.09;5065654;28;20031;-48
2023/05/09 02:55:39;;;;;;;57.65;22.20;;;;;;;13.96;100.00;101541.56;5051844;28;20024;-46
2023/05/09 02:58:05;;;;;;;56.00;22.52;;;;;;;13.95;100.00;101549.84;5065907;28;20049;-49
2023/05/09 03:00:30;;;;;;;59.38;23.25;;;;;;;13.90;100.00;101542.31;5058322;28;20154;-43
2023/05/09 03:02:56;;;;;;;65.97;25.77;;;;;;;13.92;100.00;101544.81;5064190;28;20127;-45
2023/05/09 03:05:22;;;;;;;54.35;22.48;;;;;;;13.88;100.00;101548.94;5065141;28;20035;-45
2023/05/09 03:07:49;;;;;;;68.00;24.95;;;;;;;13.85;100.00;101555.56;5037608;28;20040;-44
2023/05/09 03:10:14;;;;;;;56.00;23.05;;;;;;;13.89;100.00;101550.59;5051300;28;20024;-46
2023/05/09 03:12:42;;;;;;;63.40;24.45;;;;;;;13.88;100.00;101538.13;5051663;28;20033;-46
2023/05/09 03:15:08;;;;;;;60.72;23.95;;;;;;;13.95;100.00;101541.72;5049956;28;20044;-46
2023/05/09 03:17:34;;;;;;;62.45;23.73;;;;;;;13.92;100.00;101531.28;5052117;28;20162;-44
2023/05/09 03:19:59;;;;;;;59.30;22.55;;;;;;;14.02;100.00;101521.84;5049992;28;20033;-44
2023/05/09 03:22:25;;;;;;;54.63;22.02;;;;;;;13.95;100.00;101517.38;5068022;28;20434;-47
2023/05/09 03:24:50;;;;;;;55.47;23.02;;;;;;;13.94;100.00;101516.53;5070848;28;20035;-45
2023/05/09 03:27:15;;;;;;;61.03;23.20;;;;;;;13.88;100.00;101505.66;5064254;28;20037;-46
2023/05/09 03:29:41;;;;;;;52.83;22.55;;;;;;;13.85;100.00;101512.28;5063166;28;20063;-46
2023/05/09 03:32:07;;;;;;;59.30;22.40;;;;;;;13.89;100.00;101504.59;5051641;28;20024;-49
2023/05/09 03:34:32;;;;;;;58.50;23.17;;;;;;;13.88;100.00;101500.22;5055178;28;20024;-48
2023/05/09 03:36:58;;;;;;;54.58;22.52;;;;;;;13.88;100.00;101498.38;5049660;28;20047;-44
2023/05/09 03:39:23;;;;;;;57.72;23.17;;;;;;;13.87;100.00;101498.53;5063221;28;20028;-47
2023/05/09 03:41:49;;;;;;;56.13;22.38;;;;;;;13.89;100.00;101505.44;5063821;28;20029;-46
2023/05/09 03:44:14;;;;;;;55.75;22.75;;;;;;;13.84;100.00;101500.59;5068203;28;20028;-46
2023/05/09 03:46:40;;;;;;;61.35;23.42;;;;;;;13.92;100.00;101490.69;5056629;28;20040;-44
2023/05/09 03:49:05;;;;;;;55.90;22.67;;;;;;;13.96;100.00;101486.59;5068395;28;20029;-45
2023/05/09 03:51:31;;;;;;;62.22;23.67;;;;;;;13.93;100.00;101481.53;5069041;28;20049;-46
2023/05/09 03:53:56;;;;;;;61.67;23.75;;;;;;;13.87;100.00;101468.78;5068857;28;20033;-49
2023/05/09 03:56:22;;;;;;;58.95;22.95;;;;;;;13.91;100.00;101478.22;5058541;28;20036;-47
2023/05/09 03:58:47;;;;;;;58.47;24.25;;;;;;;13.81;100.00;101473.91;5056504;28;20147;-47
2023/05/09 04:01:13;;;;;;;59.70;23.63;;;;;;;13.77;100.00;101475.31;5049896;28;20039;-44
2023/05/09 04:03:38;;;;;;;64.22;24.63;;;;;;;13.90;100.00;101471.09;5058775;28;20025;-46
2023/05/09 04:06:04;;;;;;;61.10;24.92;;;;;;;13.81;100.00;101473.91;5067206;28;20056;-45
2023/05/09 04:08:31;;;;;;;64.35;25.58;;;;;;;13.76;100.00;101465.50;5053767;28;20033;-44
2023/05/09 04:10:56;;;;;;;66.55;24.70;;;;;;;13.77;100.00;101469.06;5059839;28;20024;-46
2023/05/09 04:13:21;;;;;;;64.55;25.98;;;;;;;13.75;100.00;101461.16;5042757;28;20052;-45
2023/05/09 04:15:47;;;;;;;64.78;25.63;;;;;;;13.71;100.00;101467.94;5048504;28;20025;-46
2023/05/09 04:18:12;;;;;;;59.80;24.67;;;;;;;13.65;100.00;101470.56;5064423;28;20491;-49
2023/05/09 04:20:37;;;;;;;68.57;27.25;;;;;;;13.76;100.00;101467.38;5066308;28;20214;-48
2023/05/09 04:23:03;;;;;;;62.65;28.02;;;;;;;13.72;100.00;101469.63;5050590;28;20040;-46
2023/05/09 04:25:30;;;;;;;67.57;27.75;;;;;;;13.69;100.00;101472.72;5049254;28;20037;-45
2023/05/09 04:27:55;;;;;;;71.23;27.27;;;;;;;13.67;100.00;101474.78;5056149;28;20383;-48
2023/05/09 04:30:21;;;;;;;75.35;29.10;;;;;;;13.63;100.00;101486.13;5066287;28;20035;-47
2023/05/09 04:32:47;;;;;;;68.95;29.63;;;;;;;13.59;100.00;101483.81;5066455;28;20628;-46
2023/05/09 04:35:13;;;;;;;73.82;29.73;;;;;;;13.59;100.00;101485.69;5051269;28;20033;-50
2023/05/09 04:37:38;;;;;;;80.45;31.20;;;;;;;13.52;100.00;101484.75;5057125;28;20031;-50
2023/05/09 04:40:04;;;;;;;83.18;30.75;;;;;;;13.47;100.00;101481.75;5065167;28;20029;-47
2023/05/09 04:42:32;;;;;;;90.75;33.03;;;;;;;13.33;100.00;101486.97;5051086;28;20119;-47
2023/05/09 04:44:58;;;;;;;96.40;34.63;;;;;;;13.29;100.00;101491.03;5046912;28;20059;-49
2023/05/09 04:47:23;;;;;;;85.57;33.75;;;;;;;13.25;100.00;101489.72;5070331;28;20033;-48
2023/05/09 04:49:49;;;;;;;91.38;35.45;;;;;;;13.16;100.00;101490.78;5058784;28;20490;-45
2023/05/09 04:52:14;;;;;;;98.40;37.75;;;;;;;13.16;100.00;101490.78;5049707;28;20387;-46
2023/05/09 04:54:39;;;;;;;98.55;37.60;;;;;;;13.17;100.00;101489.78;5058154;28;20083;-50
2023/05/09 04:57:05;;;;;;;98.60;39.53;;;;;;;13.18;100.00;101483.34;5048393;28;20040;-48
2023/05/09 04:59:31;;;;;;;98.03;37.22;;;;;;;13.18;100.00;101483.34;5050239;28;20044;-50
2023/05/09 05:01:56;;;;;;;96.07;37.20;;;;;;;13.12;100.00;101484.94;5057742;28;20025;-47
2023/05/09 05:04:22;;;;;;;96.03;36.85;;;;;;;13.16;100.00;101485.38;5056468;28;20452;-49
2023/05/09 05:06:47;;;;;;;102.43;37.38;;;;;;;13.16;100.00;101485.38;5062388;28;20025;-47
2023/05/09 05:09:13;;;;;;;111.97;39.10;;;;;;;13.11;100.00;101479.69;5057804;28;20378;-47
2023/05/09 05:11:38;;;;;;;98.15;37.83;;;;;;;13.06;100.00;101474.00;5065629;28;20031;-48
2023/05/09 05:14:04;;;;;;;108.82;39.92;;;;;;;13.08;100.00;101482.78;5072087;28;20449;-47
2023/05/09 05:16:29;;;;;;;114.20;39.42;;;;;;;13.10;100.00;101478.84;5072082;28;20438;-49
2023/05/09 05:18:55;;;;;;;106.95;40.20;;;;;;;13.07;100.00;101475.69;5055380;28;20036;-49
2023/05/09 05:21:20;;;;;;;119.57;42.30;;;;;;;13.08;100.00;101469.25;5066692;28;20120;-48
2023/05/09 05:23:45;;;;;;;106.57;39.97;;;;;;;13.08;100.00;101466.56;5053411;28;20029;-50
2023/05/09 05:26:11;;;;;;;107.43;38.55;;;;;;;13.06;100.00;101463.19;5053186;28;20107;-49
2023/05/09 05:28:36;;;;;;;112.50;40.90;;;;;;;13.07;100.00;101448.66;5068007;28;20020;-50
2023/05/09 05:31:01;;;;;;;112.63;40.83;;;;;;;13.12;100.00;101462.47;5067342;28;20094;-48
2023/05/09 05:33:27;;;;;;;105.80;41.97;;;;;;;13.20;100.00;101448.88;5052839;28;20029;-47
2023/05/09 05:35:52;;;;;;;108.75;40.53;;;;;;;13.21;100.00;101460.53;5067040;28;20119;-49
2023/05/09 05:38:19;;;;;;;110.90;40.22;;;;;;;13.19;100.00;101455.28;5038707;28;20024;-47
2023/05/09 05:40:44;;;;;;;106.85;41.47;;;;;;;13.22;100.00;101459.47;5052112;28;20094;-46
2023/05/09 05:43:10;;;;;;;117.65;41.75;;;;;;;13.25;100.00;101457.28;5052064;28;20363;-50
2023/05/09 05:45:35;;;;;;;115.75;40.53;;;;;;;13.24;100.00;101455.56;5052622;28;20025;-45
2023/05/09 05:48:01;;;;;;;107.18;40.22;;;;;;;13.22;100.00;101454.94;5052702;28;20048;-46
2023/05/09 05:50:27;;;;;;;105.80;37.30;;;;;;;13.21;100.00;101449.72;5034839;28;20032;-47
2023/05/09 05:52:52;;;;;;;102.07;38.00;;;;;;;13.22;100.00;101446.84;5071211;28;20032;-49
2023/05/09 05:55:18;;;;;;;102.55;38.42;;;;;;;13.22;100.00;101441.44;5071066;28;20047;-48
2023/05/09 05:57:43;;;;;;;107.72;36.65;;;;;;;13.23;100.00;101453.06;5055116;28;20036;-46
2023/05/09 06:00:10;;;;;;;99.18;36.17;;;;;;;13.13;100.00;101443.34;5051608;28;20502;-48
2023/05/09 06:02:35;;;;;;;92.55;35.83;;;;;;;13.16;100.00;101431.34;5064592;28;20067;-48
2023/05/09 06:05:02;;;;;;;94.75;35.00;;;;;;;13.14;100.00;101442.34;5068662;28;20405;-50
2023/05/09 06:07:28;;;;;;;85.17;33.10;;;;;;;13.16;100.00;101434.03;5070453;28;20036;-51
2023/05/09 06:09:53;;;;;;;91.55;34.55;;;;;;;13.13;100.00;101426.31;5068794;28;20050;-49
2023/05/09 06:12:18;;;;;;;93.18;34.28;;;;;;;13.15;100.00;101426.97;5058595;28;20119;-45
2023/05/09 06:14:44;;;;;;;92.38;33.67;;;;;;;13.16;100.00;101424.09;5061023;28;20049;-49
2023/05/09 06:17:10;;;;;;;92.13;34.35;;;;;;;13.18;100.00;101426.59;5053488;28;20123;-46
2023/05/09 06:19:36;;;;;;;79.30;31.88;;;;;;;13.14;100.00;101423.44;5062725;28;20065;-45
2023/05/09 06:22:03;;;;;;;78.35;31.08;;;;;;;13.16;100.00;101415.13;5071932;28;20025;-47
2023/05/09 06:24:28;;;;;;;89.53;30.13;;;;;;;13.12;100.00;101421.94;5072214;28;20497;-45
2023/05/09 06:26:54;;;;;;;78.60;29.23;;;;;;;13.10;100.00;101413.16;5071845;28;20041;-45
2023/05/09 06:29:19;;;;;;;77.40;29.55;;;;;;;13.13;100.00;101415.50;5070352;28;20021;-48
2023/05/09 06:31:44;;;;;;;96.70;31.73;;;;;;;13.13;100.00;101407.38;5070412;28;20051;-46
2023/05/09 06:34:10;;;;;;;76.68;31.02;;;;;;;13.20;100.00;101408.34;5071803;28;20445;-48
2023/05/09 06:36:35;;;;;;;74.40;29.40;;;;;;;13.15;100.00;101402.63;5071208;28;20059;-50
2023/05/09 06:39:00;;;;;;;77.40;28.42;;;;;;;13.18;100.00;101407.66;5071482;28;20025;-50
2023/05/09 06:41:26;;;;;;;83.88;29.17;;;;;;;13.20;100.00;101393.97;5069939;28;20069;-52
2023/05/09 06:43:52;;;;;;;79.20;27.35;;;;;;;13.16;100.00;101391.66;5070324;28;20025;-54
2023/05/09 06:46:17;;;;;;;68.40;27.25;;;;;;;13.18;100.00;101392.28;5070886;28;20490;-52
2023/05/09 06:48:43;;;;;;;77.07;27.67;;;;;;;13.17;100.00;101389.78;5069042;28;20029;-53
2023/05/09 06:51:08;;;;;;;69.25;26.65;;;;;;;13.17;100.00;101389.78;5059532;28;20491;-50
2023/05/09 06:53:33;;;;;;;66.82;25.50;;;;;;;13.12;100.00;101379.53;5049957;28;20033;-49
2023/05/09 06:55:59;;;;;;;72.90;26.00;;;;;;;13.15;100.00;101375.63;5050271;28;20035;-48
2023/05/09 06:58:26;;;;;;;73.85;26.13;;;;;;;13.14;100.00;101373.94;5049972;28;20124;-48
2023/05/09 07:00:51;;;;;;;67.40;24.55;;;;;;;13.13;100.00;101366.84;5032440;28;20604;-52
2023/05/09 07:03:17;;;;;;;68.72;22.85;;;;;;;13.13;100.00;101367.69;5051420;28;20029;-53
2023/05/09 07:05:42;;;;;;;65.05;22.45;;;;;;;13.08;100.00;101355.75;5050910;28;20027;-50
2023/05/09 07:08:07;;;;;;;47.10;16.95;;;;;;;12.92;100.00;101351.38;5050990;28;20513;-52
2023/05/09 07:10:33;;;;;;;54.92;18.25;;;;;;;12.90;100.00;101348.88;5049679;28;20021;-54
2023/05/09 07:12:58;;;;;;;41.25;16.55;;;;;;;12.92;100.00;101338.69;5049558;28;20054;-50
2023/05/09 07:15:24;;;;;;;52.30;16.58;;;;;;;12.94;100.00;101344.75;5049538;28;20055;-54
2023/05/09 07:17:49;;;;;;;44.38;15.18;;;;;;;12.93;100.00;101334.97;5049690;28;20032;-51
2023/05/09 07:20:15;;;;;;;37.78;15.05;;;;;;;12.91;100.00;101317.28;5051146;28;20061;-53
2023/05/09 07:22:40;;;;;;;38.70;15.05;;;;;;;12.92;100.00;101319.78;5049981;28;20028;-52
2023/05/09 07:25:07;;;;;;;41.58;15.15;;;;;;;13.03;100.00;101317.66;5050959;28;20028;-52
2023/05/09 07:27:32;;;;;;;26.75;12.95;;;;;;;12.96;100.00;101318.41;5050882;28;20033;-50
2023/05/09 07:29:58;;;;;;;31.13;13.85;;;;;;;13.00;100.00;101307.22;5049877;28;20017;-49
2023/05/09 07:32:23;;;;;;;35.03;13.93;;;;;;;13.03;100.00;101304.97;5049474;28;20040;-46
2023/05/09 07:34:49;;;;;;;37.05;13.73;;;;;;;13.06;100.00;101306.47;5050775;28;20364;-51
2023/05/09 07:37:15;;;;;;;36.70;13.75;;;;;;;13.12;100.00;101303.84;5051700;28;20025;-49
2023/05/09 07:39:41;;;;;;;36.22;13.32;;;;;;;13.08;100.00;101299.84;5051311;28;20040;-48
2023/05/09 07:42:07;;;;;;;37.90;14.35;;;;;;;13.13;100.00;101288.47;5051161;28;20029;-49
2023/05/09 07:44:32;;;;;;;33.97;13.75;;;;;;;13.10;100.00;101288.84;5051575;28;20068;-51
2023/05/09 07:46:58;;;;;;;39.38;14.65;;;;;;;13.13;100.00;101286.59;5051208;28;20539;-49
2023/05/09 07:49:24;;;;;;;37.90;15.13;;;;;;;13.15;100.00;101281.03;5050607;28;20033;-51
2023/05/09 07:51:50;;;;;;;32.78;15.65;;;;;;;13.14;100.00;101282.06;5050917;28;20107;-52
2023/05/09 07:54:15;;;;;;;35.35;15.60;;;;;;;13.15;100.00;101279.16;5050857;28;20116;-50
2023/05/09 07:56:41;;;;;;;38.25;16.27;;;;;;;13.21;100.00;101276.72;5049452;28;20048;-50
2023/05/09 07:59:06;;;;;;;42.75;16.70;;;;;;;13.22;100.00;101273.84;5050795;28;20080;-48
2023/05/09 08:01:31;;;;;;;42.17;17.83;;;;;;;13.20;100.00;101269.66;5050697;28;20479;-50
2023/05/09 08:03:57;;;;;;;41.60;17.98;;;;;;;13.27;100.00;101270.59;5050695;28;20052;-49
2023/05/09 08:06:22;;;;;;;38.55;18.83;;;;;;;13.21;100.00;101265.91;5052824;28;20427;-49
2023/05/09 08:08:47;;;;;;;47.42;19.88;;;;;;;13.14;100.00;101268.56;5050949;28;20025;-48
2023/05/09 08:11:13;;;;;;;53.92;20.92;;;;;;;13.16;100.00;101263.78;5050456;28;20108;-47
2023/05/09 08:13:38;;;;;;;55.17;21.52;;;;;;;13.09;100.00;101262.88;5050336;28;20029;-47
2023/05/09 08:16:04;;;;;;;52.28;21.73;;;;;;;13.11;100.00;101255.38;5050465;28;20029;-46
2023/05/09 08:18:30;;;;;;;62.72;22.42;;;;;;;13.17;100.00;101257.34;5032538;28;20056;-47
2023/05/09 08:20:55;;;;;;;52.42;22.92;;;;;;;13.17;100.00;101254.66;5049061;28;20068;-48
2023/05/09 08:23:20;;;;;;;62.67;23.90;;;;;;;13.16;100.00;101252.97;5049724;28;20021;-49
2023/05/09 08:25:46;;;;;;;61.47;25.42;;;;;;;13.21;100.00;101250.53;5050414;28;20028;-52
2023/05/09 08:28:12;;;;;;;65.22;27.08;;;;;;;13.29;100.00;101252.31;5048830;28;20021;-52
2023/05/09 08:30:38;;;;;;;61.50;28.30;;;;;;;13.30;100.00;101254.00;5049585;28;20538;-51
2023/05/09 08:33:03;;;;;;;68.03;27.85;;;;;;;13.27;100.00;101255.22;5048917;28;20124;-50
2023/05/09 08:35:28;;;;;;;73.03;31.08;;;;;;;13.29;100.00;101247.75;5053466;28;20513;-46
2023/05/09 08:37:54;;;;;;;67.22;28.73;;;;;;;13.31;100.00;101250.28;5052790;28;20032;-47
2023/05/09 08:40:19;;;;;;;72.75;29.75;;;;;;;13.32;100.00;101241.97;5052756;28;20029;-48
2023/05/09 08:42:48;;;;;;;71.47;29.58;;;;;;;13.39;100.00;101242.03;5052818;28;20068;-46
2023/05/09 08:45:14;;;;;;;63.05;28.63;;;;;;;13.36;100.00;101239.72;5053258;28;20036;-47
2023/05/09 08:47:40;;;;;;;63.22;29.48;;;;;;;13.31;100.00;101234.88;5053114;28;20032;-47
2023/05/09 08:50:06;;;;;;;58.13;28.25;;;;;;;13.41;100.00;101234.59;5054052;28;20021;-48
2023/05/09 08:52:32;;;;;;;66.80;30.05;;;;;;;13.44;100.00;101233.38;5052700;28;20443;-48
2023/05/09 08:54:58;;;;;;;63.30;30.20;;;;;;;13.47;100.00;101227.56;5053651;28;20100;-48
2023/05/09 08:57:26;;;;;;;70.90;30.20;;;;;;;13.45;100.00;101230.47;5053766;28;20244;-47
2023/05/09 08:59:51;;;;;;;79.57;32.63;;;;;;;13.46;100.00;101231.31;5053510;28;20052;-46
2023/05/09 09:02:17;;;;;;;65.47;30.42;;;;;;;13.44;100.00;101226.09;5053612;28;20447;-46
2023/05/09 09:04:43;;;;;;;83.78;33.25;;;;;;;13.51;100.00;101232.41;5052133;28;20064;-49
2023/05/09 09:07:10;;;;;;;78.40;32.53;;;;;;;13.46;100.00;101220.50;5052483;28;20028;-49
2023/05/09 09:09:36;;;;;;;77.63;33.85;;;;;;;13.52;100.00;101222.44;5053326;28;20066;-54
2023/05/09 09:12:05;;;;;;;73.13;32.35;;;;;;;13.56;100.00;101221.00;5053286;28;20360;-52
2023/05/09 09:14:32;;;;;;;85.25;33.42;;;;;;;13.59;100.00;101220.66;5052038;28;20489;-53
2023/05/09 09:16:57;;;;;;;76.90;34.10;;;;;;;13.55;100.00;101219.34;5051410;28;20017;-51
2023/05/09 09:19:28;;;;;;;76.30;34.03;;;;;;;13.50;100.00;101216.38;5051802;28;20025;-52
2023/05/09 09:21:53;;;;;;;68.10;33.40;;;;;;;13.55;100.00;101219.34;5051746;28;20067;-50
2023/05/09 09:24:21;;;;;;;71.97;32.38;;;;;;;13.49;100.00;101209.31;5051533;28;20048;-50
2023/05/09 09:26:48;;;;;;;71.38;33.53;;;;;;;13.50;100.00;101208.25;5053119;28;20028;-52
2023/05/09 09:29:14;;;;;;;77.05;33.65;;;;;;;13.46;100.00;101204.28;5051519;28;20170;-52
2023/05/09 09:31:43;;;;;;;70.90;32.63;;;;;;;13.44;100.00;101206.34;5052869;28;20107;-50
2023/05/09 09:34:08;;;;;;;70.68;33.72;;;;;;;13.44;100.00;101209.88;5053120;28;20112;-51
2023/05/09 09:36:35;;;;;;;79.55;35.35;;;;;;;13.43;100.00;101205.50;5053393;28;20420;-54
2023/05/09 09:39:05;;;;;;;77.32;33.95;;;;;;;13.50;100.00;101206.38;5051191;28;20029;-53
2023/05/09 09:41:37;;;;;;;79.97;35.67;;;;;;;13.46;100.00;101205.13;5035349;28;20084;-51
2023/05/09 09:44:10;;;;;;;79.28;34.92;;;;;;;13.45;100.00;101202.59;5052737;28;20032;-48
2023/05/09 09:46:55;;;;;;;79.50;35.53;;;;;;;13.50;100.00;101202.84;5051814;28;20059;-52
2023/05/09 09:49:22;;;;;;;77.55;37.15;;;;;;;13.47;100.00;101205.94;5052525;28;20025;-54
2023/05/09 09:51:57;;;;;;;79.03;37.45;;;;;;;13.43;100.00;101204.63;5051443;28;20048;-50
2023/05/09 09:54:26;;;;;;;79.85;36.58;;;;;;;13.46;100.00;101207.81;5034754;28;20033;-53
2023/05/09 09:56:53;;;;;;;74.30;35.83;;;;;;;13.52;100.00;101206.22;5051021;28;20025;-53
2023/05/09 09:59:24;;;;;;;74.30;33.85;;;;;;;13.58;100.00;101200.03;5052246;28;20100;-52
2023/05/09 10:02:03;;;;;;;71.47;32.75;;;;;;;13.55;100.00;101201.25;5051388;28;20463;-50
2023/05/09 10:04:30;;;;;;;70.72;32.35;;;;;;;13.53;100.00;101203.31;5051218;28;20086;-50
2023/05/09 10:06:57;;;;;;;60.93;30.13;;;;;;;13.52;100.00;101203.50;5052552;28;20132;-49
2023/05/09 10:09:24;;;;;;;65.90;30.48;;;;;;;13.50;100.00;101200.16;5052136;28;20283;-54
2023/05/09 10:11:53;;;;;;;58.20;28.05;;;;;;;13.50;100.00;101197.44;5050614;28;20394;-50
2023/05/09 10:14:21;;;;;;;56.55;28.30;;;;;;;13.48;100.00;101192.25;5050395;28;20020;-52
2023/05/09 10:16:51;;;;;;;61.00;31.08;;;;;;;13.48;100.00;101194.09;5050947;28;20028;-49
2023/05/09 10:19:18;;;;;;;59.63;28.00;;;;;;;13.56;100.00;101188.53;5050738;28;20031;-49
2023/05/09 10:21:48;;;;;;;61.38;28.33;;;;;;;13.56;100.00;101189.41;5051977;28;20025;-52
2023/05/09 10:24:15;;;;;;;65.25;29.50;;;;;;;13.53;100.00;101183.53;5050501;28;20037;-53
2023/05/09 10:26:42;;;;;;;57.42;29.58;;;;;;;13.50;100.00;101178.50;5050820;28;20420;-52
2023/05/09 10:29:09;;;;;;;62.67;31.52;;;;;;;13.48;100.00;101169.75;5050133;28;20028;-53
2023/05/09 10:31:36;;;;;;;67.13;31.27;;;;;;;13.57;100.00;101174.84;5034058;28;20087;-54
2023/05/09 10:34:04;;;;;;;63.33;32.35;;;;;;;13.64;100.00;101174.94;5050233;28;20033;-52
2023/05/09 10:36:30;;;;;;;67.90;33.20;;;;;;;13.64;100.00;101177.63;5050316;28;20098;-51
2023/05/09 10:38:55;;;;;;;58.78;30.80;;;;;;;13.65;100.00;101171.19;5050339;28;20471;-54
2023/05/09 10:41:21;;;;;;;69.20;31.75;;;;;;;13.61;100.00;101159.06;5051680;28;20054;-54
2023/05/09 10:43:47;;;;;;;60.50;30.70;;;;;;;13.62;100.00;101158.03;5051781;28;20120;-52
2023/05/09 10:46:12;;;;;;;57.92;32.35;;;;;;;13.64;100.00;101156.00;5050179;28;20039;-50
2023/05/09 10:48:39;;;;;;;69.05;33.90;;;;;;;13.60;100.00;101152.81;5033312;28;20024;-49
2023/05/09 10:51:04;;;;;;;71.60;33.28;;;;;;;13.69;100.00;101152.69;5049929;28;20029;-50
2023/05/09 10:53:43;;;;;;;67.60;31.90;;;;;;;13.61;100.00;101153.66;5050223;28;20031;-52
2023/05/09 10:56:40;;;;;;;60.63;29.70;;;;;;;13.60;100.00;101146.56;5049967;28;20036;-53
2023/05/09 10:59:06;;;;;;;;;;;;;;;13.55;100.00;101151.72;5051866;28;20060;-50
2023/05/09 11:01:35;;;;;;;58.65;29.50;;;;;;;13.58;100.00;101140.53;5049489;28;19913;-51